Terminal Aerodrome Forecast
Issued by NWS

Home | Current Version | Previous Version | Graphics & Text | Print | Product List | Glossary Off
Versions: 1 2 3 4 5 6 7 8 9 10 11 12 13 14

000
FTUS43 KOAX 050520
TAFCDR
TAF
KCDR 050520Z 0506/0606 18010KT P6SM SCT070
     FM051500 20014G24KT P6SM BKN070
     FM052000 34015G25KT P6SM VCTS BKN070CB
      TEMPO 0520/0524 VRB20G35KT 4SM TSRA BKN035CB
     FM060000 35012KT P6SM VCSH BKN070=

USA.gov is the U.S. government's official web portal to all federal, state and local government web resources and services.